createdAt,value
2018-01-15T00:00:36.713Z,72.81
2018-01-15T00:01:36.581Z,71.96
2018-01-15T00:02:36.444Z,71.77
2018-01-15T00:03:36.309Z,71.96
2018-01-15T00:04:36.174Z,71.77
2018-01-15T00:05:36.039Z,71.68
2018-01-15T00:06:35.902Z,71.96
2018-01-15T00:07:35.770Z,71.49
2018-01-15T00:08:35.635Z,71.21
2018-01-15T00:09:35.498Z,70.83
2018-01-15T00:10:35.367Z,70.26
2018-01-15T00:11:35.226Z,70.39
2018-01-15T00:12:35.094Z,70.45
2018-01-15T00:13:34.960Z,71.06
2018-01-15T00:14:34.824Z,71.40
2018-01-15T00:15:34.687Z,71.68
2018-01-15T00:16:34.552Z,71.68
2018-01-15T00:17:34.464Z,72.15
2018-01-15T00:18:34.282Z,71.77
2018-01-15T00:19:34.146Z,72.25
2018-01-15T00:20:34.011Z,71.96
2018-01-15T00:21:33.877Z,71.21
2018-01-15T00:22:33.740Z,70.45
2018-01-15T00:23:33.610Z,70.83
2018-01-15T00:24:33.472Z,69.83
2018-01-15T00:25:33.338Z,69.35
2018-01-15T00:26:33.200Z,69.45
2018-01-15T00:27:33.066Z,69.70
2018-01-15T00:28:32.934Z,70.07
2018-01-15T00:29:32.797Z,70.07
2018-01-15T00:30:32.660Z,70.26
2018-01-15T00:31:32.526Z,70.92
2018-01-15T00:32:32.392Z,71.02
2018-01-15T00:33:32.254Z,70.36
2018-01-15T00:34:32.118Z,70.54
2018-01-15T00:35:32.012Z,70.73
2018-01-15T00:36:31.862Z,70.17
2018-01-15T00:37:31.713Z,69.70
2018-01-15T00:38:31.579Z,69.79
2018-01-15T00:39:31.443Z,69.79
2018-01-15T00:40:31.307Z,69.70
2018-01-15T00:41:31.172Z,70.73
2018-01-15T00:42:31.038Z,70.45
2018-01-15T00:43:30.899Z,70.45
2018-01-15T00:44:30.769Z,70.45
2018-01-15T00:45:30.634Z,70.17
2018-01-15T00:46:30.496Z,69.79
2018-01-15T00:47:30.361Z,69.23
2018-01-15T00:48:30.227Z,68.85
2018-01-15T00:49:30.093Z,69.51
2018-01-15T00:50:29.961Z,69.79
2018-01-15T00:51:29.821Z,69.70
2018-01-15T00:52:29.688Z,70.64
2018-01-15T00:53:29.551Z,69.42
2018-01-15T00:54:29.414Z,68.76
2018-01-15T00:55:29.279Z,67.43
2018-01-15T00:56:29.146Z,66.62
2018-01-15T00:57:29.018Z,65.86
2018-01-15T00:58:28.877Z,65.39
2018-01-15T00:59:28.740Z,65.11
2018-01-15T01:00:28.602Z,65.48
2018-01-15T01:01:28.469Z,65.67
2018-01-15T01:02:28.333Z,65.96
2018-01-15T01:03:28.197Z,66.71
2018-01-15T01:04:28.065Z,66.71
2018-01-15T01:05:27.928Z,65.86
2018-01-15T01:06:27.790Z,65.01
2018-01-15T01:07:27.655Z,65.39
2018-01-15T01:08:27.521Z,65.01
2018-01-15T01:09:27.388Z,66.40
2018-01-15T01:10:27.250Z,66.96
2018-01-15T01:11:27.116Z,68.19
2018-01-15T01:12:26.981Z,68.47
2018-01-15T01:13:26.848Z,68.85
2018-01-15T01:14:26.716Z,69.89
2018-01-15T01:15:26.573Z,69.79
2018-01-15T01:16:26.440Z,69.70
2018-01-15T01:17:26.311Z,69.70
2018-01-15T01:18:26.168Z,69.70
2018-01-15T01:19:26.042Z,70.07
2018-01-15T01:20:25.898Z,69.79
2018-01-15T01:21:25.759Z,69.70
2018-01-15T01:22:25.625Z,69.79
2018-01-15T01:23:27.061Z,69.70
2018-01-15T01:24:25.356Z,69.79
2018-01-15T01:25:25.220Z,69.98
2018-01-15T01:26:25.085Z,69.98
2018-01-15T01:27:24.950Z,69.60
2018-01-15T01:28:24.814Z,69.79
2018-01-15T01:29:24.675Z,69.51
2018-01-15T01:30:24.545Z,69.89
2018-01-15T01:31:24.406Z,70.17
2018-01-15T01:32:24.274Z,69.23
2018-01-15T01:33:24.135Z,69.60
2018-01-15T01:34:24.000Z,68.85
2018-01-15T01:35:23.862Z,69.42
2018-01-15T01:36:23.730Z,69.89
2018-01-15T01:37:23.593Z,70.26
2018-01-15T01:38:23.456Z,70.54
2018-01-15T01:39:23.323Z,71.21
2018-01-15T01:40:23.188Z,71.02
2018-01-15T01:41:23.051Z,70.83
2018-01-15T01:42:22.914Z,71.11
2018-01-15T01:43:22.781Z,71.58
2018-01-15T01:44:22.645Z,71.58
2018-01-15T01:45:22.512Z,71.77
2018-01-15T01:46:22.376Z,71.96
2018-01-15T01:47:22.239Z,71.11
2018-01-15T01:48:22.104Z,70.73
2018-01-15T01:49:21.971Z,71.21
2018-01-15T01:50:21.832Z,71.49
2018-01-15T01:51:21.697Z,71.49
2018-01-15T01:52:21.566Z,71.21
2018-01-15T01:53:21.426Z,70.54
2018-01-15T01:54:21.291Z,70.26
2018-01-15T01:55:21.153Z,70.83
2018-01-15T01:56:21.021Z,71.11
2018-01-15T01:57:20.888Z,71.21
2018-01-15T01:58:20.748Z,71.21
2018-01-15T01:59:20.617Z,71.02
2018-01-15T02:00:20.477Z,70.83
2018-01-15T02:01:20.343Z,71.21
2018-01-15T02:02:20.206Z,70.73
2018-01-15T02:03:20.074Z,70.45
2018-01-15T02:04:19.942Z,70.54
2018-01-15T02:05:19.799Z,70.54
2018-01-15T02:06:19.665Z,70.26
2018-01-15T02:07:19.529Z,70.73
2018-01-15T02:08:19.394Z,70.54
2018-01-15T02:09:19.258Z,70.54
2018-01-15T02:10:19.122Z,70.73
2018-01-15T02:11:18.984Z,70.07
2018-01-15T02:12:18.851Z,70.07
2018-01-15T02:13:18.718Z,71.11
2018-01-15T02:14:18.580Z,71.77
2018-01-15T02:15:18.445Z,71.96
2018-01-15T02:16:18.308Z,71.77
2018-01-15T02:17:18.171Z,71.68
2018-01-15T02:18:18.040Z,72.34
2018-01-15T02:19:17.902Z,71.77
2018-01-15T02:20:17.770Z,72.06
2018-01-15T02:21:17.631Z,71.68
2018-01-15T02:22:17.496Z,71.21
2018-01-15T02:23:17.358Z,70.45
2018-01-15T02:24:17.229Z,70.26
2018-01-15T02:25:17.087Z,70.17
2018-01-15T02:26:16.952Z,69.98
2018-01-15T02:27:16.815Z,70.64
2018-01-15T02:28:16.680Z,70.54
2018-01-15T02:29:16.546Z,70.54
2018-01-15T02:30:16.408Z,70.45
2018-01-15T02:31:16.273Z,70.64
2018-01-15T02:32:16.138Z,70.73
2018-01-15T02:33:16.005Z,70.92
2018-01-15T02:34:15.866Z,70.92
2018-01-15T02:35:15.734Z,71.21
2018-01-15T02:36:15.597Z,71.21
2018-01-15T02:37:15.460Z,71.30
2018-01-15T02:38:15.326Z,71.30
2018-01-15T02:39:15.188Z,71.58
2018-01-15T02:40:15.051Z,71.68
2018-01-15T02:41:14.916Z,72.34
2018-01-15T02:42:14.786Z,73.10
2018-01-15T02:43:14.649Z,72.62
2018-01-15T02:44:14.515Z,72.62
2018-01-15T02:45:14.379Z,72.62
2018-01-15T02:46:14.242Z,72.53
2018-01-15T02:47:14.105Z,72.81
2018-01-15T02:48:13.971Z,71.77
2018-01-15T02:49:13.833Z,71.40
2018-01-15T02:50:13.698Z,71.49
2018-01-15T02:51:13.561Z,71.21
2018-01-15T02:52:13.425Z,71.49
2018-01-15T02:53:13.292Z,71.58
2018-01-15T02:54:13.153Z,71.87
2018-01-15T02:55:13.022Z,71.68
2018-01-15T02:56:12.885Z,71.58
2018-01-15T02:57:12.749Z,71.21
2018-01-15T02:58:12.613Z,71.68
2018-01-15T02:59:12.477Z,70.36
2018-01-15T03:00:12.345Z,69.79
2018-01-15T03:01:12.207Z,69.60
2018-01-15T03:02:12.071Z,69.23
2018-01-15T03:03:11.937Z,69.42
2018-01-15T03:04:11.802Z,69.70
2018-01-15T03:05:11.663Z,70.26
2018-01-15T03:06:11.527Z,70.45
2018-01-15T03:07:11.392Z,71.21
2018-01-15T03:08:11.258Z,70.83
2018-01-15T03:09:11.122Z,71.40
2018-01-15T03:10:10.984Z,70.92
2018-01-15T03:11:10.849Z,71.21
2018-01-15T03:12:10.713Z,71.02
2018-01-15T03:13:10.579Z,72.25
2018-01-15T03:14:10.440Z,72.72
2018-01-15T03:15:10.309Z,73.00
2018-01-15T03:16:10.171Z,72.72
2018-01-15T03:17:10.037Z,73.00
2018-01-15T03:18:09.900Z,73.19
2018-01-15T03:19:09.764Z,72.91
2018-01-15T03:20:09.629Z,72.53
2018-01-15T03:21:09.492Z,72.06
2018-01-15T03:22:09.358Z,71.77
2018-01-15T03:23:09.222Z,69.98
2018-01-15T03:24:09.089Z,70.17
2018-01-15T03:25:08.957Z,70.64
2018-01-15T03:26:08.816Z,69.79
2018-01-15T03:27:08.681Z,69.79
2018-01-15T03:28:08.547Z,69.70
2018-01-15T03:29:08.408Z,70.07
2018-01-15T03:30:08.276Z,70.36
2018-01-15T03:31:08.140Z,70.83
2018-01-15T03:32:08.003Z,71.58
2018-01-15T03:33:07.875Z,71.40
2018-01-15T03:34:07.733Z,71.58
2018-01-15T03:35:07.595Z,70.92
2018-01-15T03:36:07.460Z,71.02
2018-01-15T03:37:07.324Z,71.40
2018-01-15T03:38:07.187Z,71.96
2018-01-15T03:39:07.053Z,72.06
2018-01-15T03:40:06.918Z,71.77
2018-01-15T03:41:06.786Z,71.87
2018-01-15T03:42:06.647Z,71.77
2018-01-15T03:43:06.510Z,71.49
2018-01-15T03:44:06.383Z,70.64
2018-01-15T03:45:06.239Z,70.36
2018-01-15T03:46:06.105Z,70.07
2018-01-15T03:47:05.969Z,70.64
2018-01-15T03:48:05.835Z,70.73
2018-01-15T03:49:05.698Z,70.07
2018-01-15T03:50:05.563Z,70.07
2018-01-15T03:51:05.431Z,71.21
2018-01-15T03:52:05.294Z,71.11
2018-01-15T03:53:05.160Z,71.77
2018-01-15T03:54:05.021Z,72.25
2018-01-15T03:55:04.884Z,71.87
2018-01-15T03:56:04.749Z,72.81
2018-01-15T03:57:04.615Z,71.87
2018-01-15T03:58:04.477Z,71.02
2018-01-15T03:59:04.345Z,70.73
2018-01-15T04:00:04.207Z,70.54
2018-01-15T04:01:04.072Z,70.54
2018-01-15T04:02:03.936Z,70.36
2018-01-15T04:03:03.800Z,70.73
2018-01-15T04:04:03.664Z,70.45
2018-01-15T04:05:03.532Z,70.73
2018-01-15T04:06:03.392Z,70.45
2018-01-15T04:07:03.256Z,70.36
2018-01-15T04:08:03.121Z,70.36
2018-01-15T04:09:02.993Z,69.70
2018-01-15T04:10:02.853Z,69.51
2018-01-15T04:11:02.712Z,70.26
2018-01-15T04:12:02.579Z,70.54
2018-01-15T04:13:02.440Z,71.02
2018-01-15T04:14:04.073Z,71.77
2018-01-15T04:15:02.170Z,71.68
2018-01-15T04:16:02.038Z,71.30
2018-01-15T04:17:01.903Z,70.54
2018-01-15T04:18:01.763Z,70.26
2018-01-15T04:19:01.629Z,70.36
2018-01-15T04:20:01.489Z,71.40
2018-01-15T04:21:01.357Z,70.73
2018-01-15T04:22:01.219Z,70.45
2018-01-15T04:23:01.085Z,70.26
2018-01-15T04:24:00.947Z,70.26
2018-01-15T04:25:00.814Z,70.54
2018-01-15T04:26:00.675Z,70.17
2018-01-15T04:27:00.540Z,69.79
2018-01-15T04:28:00.406Z,69.89
2018-01-15T04:29:00.270Z,70.54
2018-01-15T04:30:00.134Z,70.73
2018-01-15T04:30:59.997Z,71.30
2018-01-15T04:31:59.860Z,71.11
2018-01-15T04:32:59.726Z,71.02
2018-01-15T04:33:59.590Z,71.21
2018-01-15T04:34:59.454Z,70.07
2018-01-15T04:35:59.320Z,70.07
2018-01-15T04:36:59.184Z,69.79
2018-01-15T04:37:59.046Z,70.07
2018-01-15T04:38:58.912Z,70.36
2018-01-15T04:39:58.775Z,71.30
2018-01-15T04:40:58.638Z,71.96
2018-01-15T04:41:58.504Z,72.62
2018-01-15T04:42:58.369Z,73.47
2018-01-15T04:43:58.233Z,72.72
2018-01-15T04:44:58.096Z,71.87
2018-01-15T04:45:57.962Z,71.68
2018-01-15T04:46:57.825Z,71.30
2018-01-15T04:47:57.690Z,70.07
2018-01-15T04:48:57.559Z,70.07
2018-01-15T04:49:57.416Z,69.70
2018-01-15T04:50:57.284Z,69.89
2018-01-15T04:51:57.148Z,70.26
2018-01-15T04:52:57.020Z,70.45
2018-01-15T04:53:56.874Z,70.54
2018-01-15T04:54:56.739Z,69.98
2018-01-15T04:55:56.604Z,70.54
2018-01-15T04:56:56.468Z,69.89
2018-01-15T04:57:56.344Z,69.79
2018-01-15T04:58:56.203Z,69.51
2018-01-15T04:59:56.059Z,69.04
2018-01-15T05:00:55.926Z,67.72
2018-01-15T05:01:55.788Z,67.15
2018-01-15T05:02:55.658Z,67.15
2018-01-15T05:03:55.515Z,68.10
2018-01-15T05:04:55.384Z,67.62
2018-01-15T05:05:55.245Z,69.04
2018-01-15T05:06:55.311Z,69.89
2018-01-15T05:07:54.976Z,69.89
2018-01-15T05:08:54.837Z,69.70
2018-01-15T05:09:54.701Z,69.23
2018-01-15T05:10:54.563Z,69.60
2018-01-15T05:11:54.429Z,69.51
2018-01-15T05:12:54.292Z,68.66
2018-01-15T05:13:54.156Z,68.85
2018-01-15T05:14:54.021Z,69.70
2018-01-15T05:15:53.884Z,69.79
2018-01-15T05:16:53.749Z,70.26
2018-01-15T05:17:53.614Z,70.17
2018-01-15T05:18:53.478Z,70.92
2018-01-15T05:19:53.350Z,72.15
2018-01-15T05:20:53.223Z,72.06
2018-01-15T05:21:53.072Z,71.87
2018-01-15T05:22:52.938Z,72.06
2018-01-15T05:23:52.800Z,71.96
2018-01-15T05:24:52.664Z,71.87
2018-01-15T05:25:52.526Z,71.96
2018-01-15T05:26:52.392Z,72.72
2018-01-15T05:27:52.257Z,72.34
2018-01-15T05:28:52.123Z,72.53
2018-01-15T05:29:51.985Z,71.96
2018-01-15T05:30:51.850Z,71.87
2018-01-15T05:31:51.714Z,72.06
2018-01-15T05:32:51.577Z,71.30
2018-01-15T05:33:51.441Z,71.49
2018-01-15T05:34:51.303Z,71.77
2018-01-15T05:35:51.172Z,71.87
2018-01-15T05:36:51.032Z,71.02
2018-01-15T05:37:50.897Z,70.73
2018-01-15T05:38:50.762Z,70.26
2018-01-15T05:39:50.626Z,70.26
2018-01-15T05:40:50.493Z,70.54
2018-01-15T05:41:50.356Z,69.89
2018-01-15T05:42:50.220Z,69.79
2018-01-15T05:43:50.088Z,69.98
2018-01-15T05:44:49.950Z,69.70
2018-01-15T05:45:49.811Z,70.26
2018-01-15T05:46:49.676Z,70.64
2018-01-15T05:47:49.542Z,70.54
2018-01-15T05:48:49.403Z,70.17
2018-01-15T05:49:49.270Z,69.98
2018-01-15T05:50:49.133Z,68.66
2018-01-15T05:51:48.999Z,68.76
2018-01-15T05:52:48.863Z,67.91
2018-01-15T05:53:48.727Z,67.43
2018-01-15T05:54:48.594Z,66.68
2018-01-15T05:55:48.455Z,66.49
2018-01-15T05:56:48.325Z,66.77
2018-01-15T05:57:48.186Z,67.34
2018-01-15T05:58:48.048Z,67.62
2018-01-15T05:59:47.913Z,67.72
2018-01-15T06:00:47.778Z,67.34
2018-01-15T06:01:47.645Z,66.68
2018-01-15T06:02:47.505Z,66.96
2018-01-15T06:03:47.371Z,66.30
2018-01-15T06:04:47.232Z,65.92
2018-01-15T06:05:47.094Z,65.73
2018-01-15T06:06:46.960Z,65.26
2018-01-15T06:07:46.825Z,65.08
2018-01-15T06:08:46.688Z,65.64
2018-01-15T06:09:46.552Z,66.02
2018-01-15T06:10:46.419Z,66.77
2018-01-15T06:11:46.288Z,67.53
2018-01-15T06:12:46.145Z,67.81
2018-01-15T06:13:46.011Z,68.10
2018-01-15T06:14:45.874Z,68.10
2018-01-15T06:15:45.737Z,68.29
2018-01-15T06:16:45.602Z,69.04
2018-01-15T06:17:45.470Z,68.19
2018-01-15T06:18:45.327Z,68.10
2018-01-15T06:19:45.199Z,68.19
2018-01-15T06:20:45.062Z,68.66
2018-01-15T06:21:44.922Z,69.23
2018-01-15T06:22:44.784Z,69.23
2018-01-15T06:23:44.653Z,69.23
2018-01-15T06:24:44.513Z,69.70
2018-01-15T06:25:44.377Z,69.60
2018-01-15T06:26:44.243Z,69.98
2018-01-15T06:27:44.103Z,69.70
2018-01-15T06:28:43.967Z,69.70
2018-01-15T06:29:43.832Z,70.17
2018-01-15T06:30:43.694Z,70.36
2018-01-15T06:31:43.562Z,70.26
2018-01-15T06:32:43.424Z,70.45
2018-01-15T06:33:43.286Z,70.64
2018-01-15T06:34:43.152Z,70.36
2018-01-15T06:35:43.014Z,70.45
2018-01-15T06:36:42.881Z,70.73
2018-01-15T06:37:42.743Z,70.83
2018-01-15T06:38:42.609Z,71.21
2018-01-15T06:39:42.470Z,71.21
2018-01-15T06:40:42.336Z,71.02
2018-01-15T06:41:42.199Z,71.30
2018-01-15T06:42:42.062Z,71.21
2018-01-15T06:43:41.941Z,70.07
2018-01-15T06:44:41.789Z,70.17
2018-01-15T06:45:41.659Z,70.64
2018-01-15T06:46:41.518Z,70.36
2018-01-15T06:47:41.391Z,71.11
2018-01-15T06:48:41.248Z,71.40
2018-01-15T06:49:41.113Z,71.21
2018-01-15T06:50:40.976Z,70.45
2018-01-15T06:51:40.841Z,70.36
2018-01-15T06:52:40.709Z,71.21
2018-01-15T06:53:40.567Z,71.77
2018-01-15T06:54:40.433Z,72.06
2018-01-15T06:55:40.295Z,71.68
2018-01-15T06:56:40.159Z,70.83
2018-01-15T06:57:40.022Z,70.17
2018-01-15T06:58:39.889Z,70.36
2018-01-15T06:59:39.753Z,70.54
2018-01-15T07:00:39.616Z,70.54
2018-01-15T07:01:39.487Z,70.36
2018-01-15T07:02:39.342Z,70.36
2018-01-15T07:03:39.208Z,70.64
2018-01-15T07:04:39.071Z,71.77
2018-01-15T07:05:38.937Z,70.92
2018-01-15T07:06:38.799Z,70.36
2018-01-15T07:07:38.663Z,70.26
2018-01-15T07:08:38.531Z,70.92
2018-01-15T07:09:38.437Z,71.11
2018-01-15T07:10:38.256Z,70.73
2018-01-15T07:11:38.122Z,70.64
2018-01-15T07:12:37.986Z,69.79
2018-01-15T07:13:37.850Z,70.45
2018-01-15T07:14:37.713Z,70.54
2018-01-15T07:15:37.577Z,70.64
2018-01-15T07:16:37.440Z,71.11
2018-01-15T07:17:37.303Z,71.58
2018-01-15T07:18:37.170Z,71.77
2018-01-15T07:19:37.034Z,71.11
2018-01-15T07:20:36.900Z,71.21
2018-01-15T07:21:36.797Z,70.73
2018-01-15T07:22:36.626Z,70.36
2018-01-15T07:23:36.491Z,70.45
2018-01-15T07:24:36.356Z,70.36
2018-01-15T07:25:36.218Z,69.98
2018-01-15T07:26:36.085Z,70.07
2018-01-15T07:27:35.951Z,70.07
2018-01-15T07:28:35.811Z,69.89
2018-01-15T07:29:35.676Z,70.07
2018-01-15T07:30:35.539Z,70.07
2018-01-15T07:31:35.405Z,70.26
2018-01-15T07:32:35.267Z,69.98
2018-01-15T07:33:35.136Z,69.51
2018-01-15T07:34:34.996Z,68.76
2018-01-15T07:35:34.861Z,69.04
2018-01-15T07:36:34.727Z,68.85
2018-01-15T07:37:34.590Z,69.32
2018-01-15T07:38:34.453Z,69.51
2018-01-15T07:39:34.317Z,69.60
2018-01-15T07:40:34.184Z,69.23
2018-01-15T07:41:34.046Z,68.76
2018-01-15T07:42:33.943Z,69.04
2018-01-15T07:43:33.774Z,69.04
2018-01-15T07:44:33.638Z,69.23
2018-01-15T07:45:33.502Z,69.32
2018-01-15T07:46:33.367Z,68.76
2018-01-15T07:47:33.232Z,68.76
2018-01-15T07:48:33.096Z,68.19
2018-01-15T07:49:32.959Z,68.19
2018-01-15T07:50:32.823Z,68.19
2018-01-15T07:51:32.696Z,68.47
2018-01-15T07:52:32.554Z,68.19
2018-01-15T07:53:32.416Z,67.43
2018-01-15T07:54:32.290Z,67.62
2018-01-15T07:55:32.199Z,67.53
2018-01-15T07:56:32.009Z,68.10
2018-01-15T07:57:31.873Z,69.04
2018-01-15T07:58:31.737Z,68.57
2018-01-15T07:59:31.606Z,68.95
2018-01-15T08:00:31.472Z,68.85
2018-01-15T08:01:31.330Z,68.95
2018-01-15T08:02:31.196Z,69.51
2018-01-15T08:03:31.065Z,69.70
2018-01-15T08:04:30.926Z,69.42
2018-01-15T08:05:30.786Z,69.13
2018-01-15T08:06:30.652Z,69.51
2018-01-15T08:07:30.517Z,69.42
2018-01-15T08:08:30.384Z,70.17
2018-01-15T08:09:30.243Z,68.00
2018-01-15T08:10:30.108Z,67.15
2018-01-15T08:11:29.974Z,66.02
2018-01-15T08:12:29.838Z,67.06
2018-01-15T08:13:29.705Z,66.68
2018-01-15T08:14:29.569Z,66.77
2018-01-15T08:15:29.430Z,68.95
2018-01-15T08:16:29.298Z,69.89
2018-01-15T08:17:29.194Z,70.26
2018-01-15T08:18:29.026Z,70.45
2018-01-15T08:19:28.892Z,70.73
2018-01-15T08:20:28.756Z,70.36
2018-01-15T08:21:28.621Z,70.54
2018-01-15T08:22:28.486Z,70.73
2018-01-15T08:23:28.351Z,70.73
2018-01-15T08:24:28.217Z,71.02
2018-01-15T08:25:28.081Z,71.77
2018-01-15T08:26:27.946Z,72.06
2018-01-15T08:27:27.810Z,71.87
2018-01-15T08:28:27.675Z,71.21
2018-01-15T08:29:27.539Z,70.36
2018-01-15T08:30:27.404Z,70.36
2018-01-15T08:31:27.269Z,69.79
2018-01-15T08:32:27.139Z,69.60
2018-01-15T08:33:26.994Z,69.51
2018-01-15T08:34:26.870Z,68.76
2018-01-15T08:35:26.727Z,68.85
2018-01-15T08:36:26.593Z,68.66
2018-01-15T08:37:26.457Z,68.95
2018-01-15T08:38:26.323Z,69.51
2018-01-15T08:39:26.193Z,68.29
2018-01-15T08:40:26.056Z,66.96
2018-01-15T08:41:25.917Z,66.40
2018-01-15T08:42:25.780Z,66.49
2018-01-15T08:43:25.648Z,66.40
2018-01-15T08:44:25.511Z,66.58
2018-01-15T08:45:25.377Z,66.02
2018-01-15T08:46:25.241Z,65.45
2018-01-15T08:47:25.104Z,65.55
2018-01-15T08:48:24.974Z,66.68
2018-01-15T08:49:24.836Z,67.72
2018-01-15T08:50:24.709Z,68.10
2018-01-15T08:51:24.568Z,68.29
2018-01-15T08:52:24.434Z,68.10
2018-01-15T08:53:24.296Z,67.81
2018-01-15T08:54:24.163Z,68.29
2018-01-15T08:55:24.028Z,68.19
2018-01-15T08:56:23.894Z,68.38
2018-01-15T08:57:23.760Z,67.91
2018-01-15T08:58:23.666Z,67.15
2018-01-15T08:59:23.488Z,66.90
2018-01-15T09:00:23.350Z,66.81
2018-01-15T09:01:23.217Z,67.06
2018-01-15T09:02:23.082Z,66.68
2018-01-15T09:03:22.949Z,66.68
2018-01-15T09:04:22.813Z,67.09
2018-01-15T09:05:22.677Z,66.58
2018-01-15T09:06:22.542Z,66.87
2018-01-15T09:07:22.407Z,66.96
2018-01-15T09:08:22.273Z,66.90
2018-01-15T09:09:22.137Z,66.77
2018-01-15T09:10:22.002Z,67.15
2018-01-15T09:11:21.870Z,65.86
2018-01-15T09:12:21.732Z,65.67
2018-01-15T09:13:21.597Z,65.58
2018-01-15T09:14:21.461Z,64.92
2018-01-15T09:15:21.330Z,65.30
2018-01-15T09:16:21.191Z,65.77
2018-01-15T09:17:21.057Z,66.05
2018-01-15T09:18:20.925Z,65.77
2018-01-15T09:19:20.786Z,65.96
2018-01-15T09:20:20.650Z,66.43
2018-01-15T09:21:20.515Z,66.05
2018-01-15T09:22:20.383Z,65.67
2018-01-15T09:23:20.244Z,65.39
2018-01-15T09:24:20.113Z,64.64
2018-01-15T09:25:19.973Z,63.79
2018-01-15T09:26:19.843Z,63.03
2018-01-15T09:27:19.706Z,61.43
2018-01-15T09:28:19.571Z,61.05
2018-01-15T09:29:19.435Z,60.02
2018-01-15T09:30:19.305Z,58.98
2018-01-15T09:31:19.165Z,58.41
2018-01-15T09:32:19.030Z,58.31
2018-01-15T09:33:18.897Z,58.31
2018-01-15T09:34:18.759Z,57.65
2018-01-15T09:35:18.626Z,57.09
2018-01-15T09:36:18.492Z,56.90
2018-01-15T09:37:18.354Z,55.96
2018-01-15T09:38:18.222Z,55.67
2018-01-15T09:39:18.088Z,55.13
2018-01-15T09:40:17.955Z,55.32
2018-01-15T09:41:17.822Z,54.57
2018-01-15T09:42:17.687Z,54.28
2018-01-15T09:43:17.590Z,54.47
2018-01-15T09:44:17.417Z,54.13
2018-01-15T09:45:17.282Z,54.60
2018-01-15T09:46:17.149Z,54.13
2018-01-15T09:47:17.060Z,53.37
2018-01-15T09:48:16.882Z,53.30
2018-01-15T09:49:16.754Z,53.39
2018-01-15T09:50:16.617Z,53.49
2018-01-15T09:51:16.482Z,53.87
2018-01-15T09:52:16.348Z,53.49
2018-01-15T09:53:16.213Z,54.27
2018-01-15T09:54:16.083Z,53.70
2018-01-15T09:55:15.954Z,52.48
2018-01-15T09:56:15.816Z,52.29
2018-01-15T09:57:15.685Z,51.06
2018-01-15T09:58:15.552Z,50.68
2018-01-15T09:59:15.421Z,50.42
2018-01-15T10:00:15.290Z,50.52
2018-01-15T10:01:15.154Z,49.95
2018-01-15T10:02:15.029Z,48.63
2018-01-15T10:03:14.899Z,48.53
2018-01-15T10:04:14.766Z,47.77
2018-01-15T10:05:14.631Z,46.83
2018-01-15T10:06:14.499Z,45.88
2018-01-15T10:07:14.370Z,45.72
2018-01-15T10:08:14.241Z,44.67
2018-01-15T10:09:14.108Z,44.58
2018-01-15T10:10:13.978Z,43.91
2018-01-15T10:11:13.847Z,43.44
2018-01-15T10:12:13.718Z,43.04
2018-01-15T10:13:13.586Z,43.26
2018-01-15T10:14:13.458Z,43.26
2018-01-15T10:15:13.331Z,43.26
2018-01-15T10:16:13.196Z,42.11
2018-01-15T10:17:13.065Z,42.11
2018-01-15T10:18:12.936Z,42.40
2018-01-15T10:19:12.808Z,42.02
2018-01-15T10:20:12.678Z,42.61
2018-01-15T10:21:12.547Z,43.46
2018-01-15T10:22:12.420Z,42.71
2018-01-15T10:23:12.291Z,43.18
2018-01-15T10:24:12.162Z,43.37
2018-01-15T10:25:12.033Z,42.40
2018-01-15T10:26:11.902Z,42.30
2018-01-15T10:27:11.779Z,41.74
2018-01-15T10:28:11.652Z,42.69
2018-01-15T10:29:11.516Z,43.14
2018-01-15T10:30:11.386Z,43.14
2018-01-15T10:31:11.260Z,43.16
2018-01-15T10:32:11.128Z,43.16
2018-01-15T10:33:10.999Z,42.11
2018-01-15T10:34:10.869Z,42.11
2018-01-15T10:35:10.742Z,42.33
2018-01-15T10:36:10.615Z,42.04
2018-01-15T10:37:10.483Z,42.04
2018-01-15T10:38:10.355Z,41.38
2018-01-15T10:39:10.226Z,41.57
2018-01-15T10:40:10.100Z,40.91
2018-01-15T10:41:09.970Z,41.47
2018-01-15T10:42:09.843Z,41.19
2018-01-15T10:43:09.715Z,41.85
2018-01-15T10:44:09.587Z,42.14
2018-01-15T10:45:09.458Z,42.14
2018-01-15T10:46:09.329Z,41.40
2018-01-15T10:47:09.201Z,41.02
2018-01-15T10:48:09.074Z,41.12
2018-01-15T10:49:08.952Z,40.26
2018-01-15T10:50:08.816Z,39.79
2018-01-15T10:51:08.693Z,39.70
2018-01-15T10:52:08.560Z,39.70
2018-01-15T10:53:08.432Z,40.36
2018-01-15T10:54:08.305Z,41.21
2018-01-15T10:55:08.178Z,41.21
2018-01-15T10:56:08.048Z,41.12
2018-01-15T10:57:07.921Z,40.55
2018-01-15T10:58:07.794Z,40.74
2018-01-15T10:59:07.668Z,40.26
2018-01-15T11:00:07.538Z,40.36
2018-01-15T11:01:07.413Z,39.89
2018-01-15T11:02:07.340Z,39.51
2018-01-15T11:03:07.157Z,39.15
2018-01-15T11:04:07.029Z,38.58
2018-01-15T11:05:06.903Z,38.39
2018-01-15T11:06:06.775Z,38.18
2018-01-15T11:07:06.645Z,38.09
2018-01-15T11:08:06.519Z,38.46
2018-01-15T11:09:06.392Z,38.94
2018-01-15T11:10:06.266Z,39.41
2018-01-15T11:11:06.138Z,39.70
2018-01-15T11:12:06.009Z,39.53
2018-01-15T11:13:05.882Z,38.86
2018-01-15T11:14:05.757Z,39.15
2018-01-15T11:15:05.628Z,39.53
2018-01-15T11:16:05.506Z,40.28
2018-01-15T11:17:05.375Z,39.90
2018-01-15T11:18:05.249Z,39.53
2018-01-15T11:19:05.122Z,40.09
2018-01-15T11:20:05.012Z,40.57
2018-01-15T11:21:04.866Z,40.66
2018-01-15T11:22:04.741Z,39.83
2018-01-15T11:23:04.613Z,39.90
2018-01-15T11:24:04.511Z,40.00
2018-01-15T11:25:04.357Z,40.09
2018-01-15T11:26:04.232Z,40.38
2018-01-15T11:27:04.105Z,40.76
2018-01-15T11:28:03.983Z,39.53
2018-01-15T11:29:03.849Z,39.15
2018-01-15T11:30:03.725Z,39.15
2018-01-15T11:31:03.597Z,39.05
2018-01-15T11:32:03.471Z,39.15
2018-01-15T11:33:03.343Z,38.98
2018-01-15T11:34:03.216Z,38.69
2018-01-15T11:35:03.095Z,37.37
2018-01-15T11:36:02.961Z,36.99
2018-01-15T11:37:02.837Z,37.18
2018-01-15T11:38:02.709Z,37.55
2018-01-15T11:39:02.584Z,37.63
2018-01-15T11:40:02.458Z,37.63
2018-01-15T11:41:02.328Z,37.82
2018-01-15T11:42:02.202Z,37.82
2018-01-15T11:43:02.076Z,38.01
2018-01-15T11:44:01.953Z,38.37
2018-01-15T11:45:01.824Z,39.13
2018-01-15T11:46:01.696Z,39.41
2018-01-15T11:47:01.568Z,39.41
2018-01-15T11:48:01.442Z,38.75
2018-01-15T11:49:01.316Z,38.82
2018-01-15T11:50:01.185Z,39.29
2018-01-15T11:51:01.066Z,39.79
2018-01-15T11:52:00.931Z,39.89
2018-01-15T11:53:00.813Z,39.51
2018-01-15T11:54:00.680Z,39.62
2018-01-15T11:55:00.550Z,39.51
2018-01-15T11:56:00.423Z,40.36
2018-01-15T11:57:00.295Z,39.51
2018-01-15T11:58:00.168Z,39.51
2018-01-15T11:59:00.042Z,38.84
2018-01-15T11:59:59.915Z,38.75
2018-01-15T12:00:59.785Z,38.94
2018-01-15T12:01:59.659Z,39.60
2018-01-15T12:02:59.533Z,39.22
2018-01-15T12:03:59.409Z,39.13
2018-01-15T12:04:59.276Z,39.98
2018-01-15T12:05:59.150Z,40.74
2018-01-15T12:06:59.021Z,40.08
2018-01-15T12:07:58.895Z,39.70
2018-01-15T12:08:58.767Z,39.79
2018-01-15T12:09:58.639Z,40.44
2018-01-15T12:10:58.512Z,40.81
2018-01-15T12:11:58.383Z,41.00
2018-01-15T12:12:58.256Z,41.02
2018-01-15T12:13:58.129Z,40.83
2018-01-15T12:14:57.998Z,40.66
2018-01-15T12:15:57.872Z,39.98
2018-01-15T12:16:57.748Z,39.60
2018-01-15T12:17:57.616Z,39.22
2018-01-15T12:18:57.488Z,38.84
2018-01-15T12:19:57.367Z,38.94
2018-01-15T12:20:57.232Z,39.05
2018-01-15T12:21:57.106Z,38.10
2018-01-15T12:22:56.978Z,37.54
2018-01-15T12:23:56.851Z,37.06
2018-01-15T12:24:56.725Z,37.25
2018-01-15T12:25:56.598Z,37.44
2018-01-15T12:26:56.467Z,37.54
2018-01-15T12:27:56.342Z,37.16
2018-01-15T12:28:56.213Z,36.87
2018-01-15T12:29:56.087Z,37.25
2018-01-15T12:30:55.960Z,37.16
2018-01-15T12:31:55.832Z,36.59
2018-01-15T12:32:55.703Z,37.44
2018-01-15T12:33:55.577Z,37.71
2018-01-15T12:34:55.449Z,37.61
2018-01-15T12:35:55.322Z,37.80
2018-01-15T12:36:55.196Z,38.18
2018-01-15T12:37:55.067Z,38.75
2018-01-15T12:38:54.940Z,38.65
2018-01-15T12:39:54.813Z,38.65
2018-01-15T12:40:54.681Z,38.65
2018-01-15T12:41:54.557Z,38.65
2018-01-15T12:42:54.429Z,38.28
2018-01-15T12:43:54.300Z,38.46
2018-01-15T12:44:54.173Z,38.94
2018-01-15T12:45:54.051Z,38.75
2018-01-15T12:46:53.917Z,38.65
2018-01-15T12:47:53.790Z,38.28
2018-01-15T12:48:53.659Z,38.65
2018-01-15T12:49:53.532Z,37.73
2018-01-15T12:50:53.406Z,36.59